createdAt,value
2019-03-03T00:01:54.759Z,6.60
2019-03-03T00:04:24.511Z,6.70
2019-03-03T00:06:53.915Z,6.70
2019-03-03T00:09:23.165Z,6.60
2019-03-03T00:11:52.370Z,6.70
2019-03-03T00:14:21.612Z,6.70
2019-03-03T00:16:50.872Z,6.70
2019-03-03T00:19:20.341Z,6.60
2019-03-03T00:21:50.028Z,6.60
2019-03-03T00:24:19.228Z,6.60
2019-03-03T00:26:48.616Z,6.60
2019-03-03T00:29:17.790Z,6.60
2019-03-03T00:31:46.928Z,6.60
2019-03-03T00:34:16.173Z,6.50
2019-03-03T00:37:13.684Z,6.50
2019-03-03T00:40:04.943Z,6.50
2019-03-03T00:43:08.474Z,6.50
2019-03-03T00:45:43.036Z,6.50
2019-03-03T00:48:34.640Z,6.50
2019-03-03T00:51:19.880Z,6.50
2019-03-03T00:54:23.324Z,6.50
2019-03-03T00:57:01.292Z,6.50
2019-03-03T00:59:47.843Z,6.50
2019-03-03T01:02:34.694Z,6.50
2019-03-03T01:05:12.464Z,6.50
2019-03-03T01:08:04.045Z,6.60
2019-03-03T01:10:54.179Z,6.60
2019-03-03T01:13:34.083Z,6.60
2019-03-03T01:16:25.300Z,6.60
2019-03-03T01:19:18.044Z,6.60
2019-03-03T01:22:04.882Z,6.60
2019-03-03T01:24:42.048Z,6.60
2019-03-03T01:27:11.435Z,6.60
2019-03-03T01:29:40.905Z,6.60
2019-03-03T01:32:10.283Z,6.60
2019-03-03T01:34:48.308Z,6.60
2019-03-03T01:47:42.518Z,6.80
2019-03-03T01:50:11.854Z,6.80
2019-03-03T01:52:40.976Z,6.80
2019-03-03T01:55:10.244Z,6.80
2019-03-03T01:57:39.984Z,6.80
2019-03-03T02:07:05.604Z,6.90
2019-03-03T02:09:35.308Z,6.80
2019-03-03T02:12:04.527Z,6.80
2019-03-03T02:14:33.961Z,6.80
2019-03-03T02:17:03.643Z,6.80
2019-03-03T02:19:33.064Z,6.80
2019-03-03T02:22:02.177Z,6.90
2019-03-03T02:24:31.637Z,6.80
2019-03-03T02:27:01.279Z,6.80
2019-03-03T02:29:31.243Z,6.80
2019-03-03T02:32:00.366Z,6.80
2019-03-03T02:34:30.067Z,6.80
2019-03-03T02:36:59.465Z,6.80
2019-03-03T02:39:29.157Z,6.70
2019-03-03T02:41:59.010Z,6.70
2019-03-03T02:44:29.141Z,6.70
2019-03-03T02:46:58.643Z,6.60
2019-03-03T02:49:28.209Z,6.60
2019-03-03T02:51:57.691Z,6.60
2019-03-03T02:54:27.102Z,6.60
2019-03-03T02:56:56.492Z,6.50
2019-03-03T02:59:26.244Z,6.50
2019-03-03T03:01:59.156Z,6.50
2019-03-03T03:04:29.940Z,6.50
2019-03-03T03:07:21.732Z,6.50
2019-03-03T03:10:11.312Z,6.40
2019-03-03T03:12:52.120Z,6.40
2019-03-03T03:15:30.517Z,6.40
2019-03-03T03:18:10.002Z,6.30
2019-03-03T03:20:53.734Z,6.30
2019-03-03T03:23:38.259Z,6.30
2019-03-03T03:26:38.744Z,6.30
2019-03-03T03:29:39.118Z,6.30
2019-03-03T03:32:20.057Z,6.20
2019-03-03T03:34:55.928Z,6.20
2019-03-03T03:37:44.495Z,6.20
2019-03-03T03:40:19.775Z,6.20
2019-03-03T03:43:23.114Z,6.20
2019-03-03T03:46:07.233Z,6.10
2019-03-03T03:48:48.192Z,6.10
2019-03-03T03:51:35.094Z,6.10
2019-03-03T03:54:22.067Z,6.00
2019-03-03T03:57:10.273Z,6.00
2019-03-03T03:59:44.768Z,6.00
2019-03-03T04:02:32.794Z,6.00
2019-03-03T04:05:30.027Z,6.00
2019-03-03T04:08:18.228Z,5.90
2019-03-03T04:10:59.526Z,5.90
2019-03-03T04:13:39.283Z,5.90
2019-03-03T04:16:17.288Z,5.80
2019-03-03T04:19:04.316Z,5.80
2019-03-03T04:21:55.607Z,5.80
2019-03-03T04:24:44.398Z,5.80
2019-03-03T04:27:35.973Z,5.80
2019-03-03T04:30:10.820Z,5.80
2019-03-03T04:32:47.427Z,5.70
2019-03-03T04:35:24.628Z,5.70
2019-03-03T04:38:28.063Z,5.70
2019-03-03T04:41:25.632Z,5.70
2019-03-03T04:44:05.767Z,5.70
2019-03-03T04:46:48.971Z,5.70
2019-03-03T04:49:37.699Z,5.70
2019-03-03T04:52:24.913Z,5.70
2019-03-03T04:55:13.488Z,5.60
2019-03-03T04:58:05.260Z,5.60
2019-03-03T05:00:54.352Z,5.60
2019-03-03T05:03:44.822Z,5.50
2019-03-03T05:06:39.067Z,5.50
2019-03-03T05:09:13.296Z,5.50
2019-03-03T05:12:51.638Z,5.50
2019-03-03T05:15:51.562Z,5.40
2019-03-03T05:18:28.402Z,5.40
2019-03-03T05:20:57.839Z,5.40
2019-03-03T05:23:27.558Z,5.40
2019-03-03T05:25:57.235Z,5.30
2019-03-03T05:28:27.066Z,5.30
2019-03-03T05:30:56.520Z,5.30
2019-03-03T05:33:26.323Z,5.30
2019-03-03T05:35:56.003Z,5.20
2019-03-03T05:38:26.079Z,5.20
2019-03-03T05:40:56.049Z,5.20
2019-03-03T05:43:25.749Z,5.10
2019-03-03T05:45:55.379Z,5.10
2019-03-03T05:48:24.836Z,5.00
2019-03-03T05:50:54.496Z,5.00
2019-03-03T05:53:24.194Z,4.90
2019-03-03T05:55:53.979Z,4.90
2019-03-03T05:58:23.666Z,4.90
2019-03-03T06:00:53.663Z,4.90
2019-03-03T06:03:23.421Z,4.90
2019-03-03T06:05:52.911Z,4.90
2019-03-03T06:08:22.419Z,4.80
2019-03-03T06:10:51.879Z,4.80
2019-03-03T06:13:21.880Z,4.80
2019-03-03T06:15:51.331Z,4.80
2019-03-03T06:18:20.439Z,4.80
2019-03-03T06:20:49.882Z,4.90
2019-03-03T06:23:19.270Z,4.90
2019-03-03T06:25:48.699Z,4.80
2019-03-03T06:28:18.076Z,4.90
2019-03-03T06:30:47.534Z,4.80
2019-03-03T06:33:17.205Z,4.80
2019-03-03T06:35:46.722Z,4.80
2019-03-03T06:38:16.109Z,4.80
2019-03-03T06:40:45.275Z,4.80
2019-03-03T06:43:14.947Z,4.80
2019-03-03T06:45:44.375Z,4.80
2019-03-03T06:48:14.946Z,4.80
2019-03-03T06:50:44.795Z,4.90
2019-03-03T06:53:14.195Z,4.90
2019-03-03T06:55:43.679Z,5.00
2019-03-03T06:58:13.322Z,5.00
2019-03-03T07:00:42.753Z,5.10
2019-03-03T07:03:11.937Z,5.20
2019-03-03T07:05:41.654Z,5.20
2019-03-03T07:08:11.417Z,5.20
2019-03-03T07:10:41.123Z,5.30
2019-03-03T07:13:10.644Z,5.40
2019-03-03T07:15:39.867Z,5.50
2019-03-03T07:18:09.270Z,5.60
2019-03-03T07:20:39.045Z,5.80
2019-03-03T07:23:08.518Z,5.90
2019-03-03T07:25:37.927Z,6.00
2019-03-03T07:28:07.338Z,6.10
2019-03-03T07:30:36.537Z,6.20
2019-03-03T07:33:16.815Z,6.20
2019-03-03T07:35:46.263Z,6.20
2019-03-03T07:38:15.378Z,6.30
2019-03-03T07:40:44.789Z,6.40
2019-03-03T07:43:14.510Z,6.50
2019-03-03T07:45:44.336Z,6.60
2019-03-03T07:48:13.438Z,6.70
2019-03-03T07:50:42.911Z,6.90
2019-03-03T07:53:12.605Z,7.00
2019-03-03T07:55:42.388Z,7.10
2019-03-03T07:58:12.172Z,7.20
2019-03-03T08:00:41.913Z,7.30
2019-03-03T08:03:11.037Z,7.30
2019-03-03T08:05:40.192Z,7.40
2019-03-03T08:08:09.307Z,7.50
2019-03-03T08:10:39.321Z,7.50
2019-03-03T08:13:09.610Z,7.60
2019-03-03T08:15:39.195Z,7.60
2019-03-03T08:18:08.326Z,7.70
2019-03-03T08:20:37.805Z,7.70
2019-03-03T08:23:06.937Z,7.80
2019-03-03T08:25:36.160Z,7.80
2019-03-03T08:28:05.275Z,7.90
2019-03-03T08:30:34.738Z,7.90
2019-03-03T08:33:04.190Z,7.90
2019-03-03T08:35:33.772Z,7.90
2019-03-03T08:38:03.463Z,7.90
2019-03-03T08:40:32.604Z,8.00
2019-03-03T08:43:21.308Z,8.00
2019-03-03T08:46:10.111Z,8.10
2019-03-03T08:48:48.377Z,8.10
2019-03-03T08:51:24.364Z,8.20
2019-03-03T08:54:00.927Z,8.20
2019-03-03T08:56:42.043Z,8.30
2019-03-03T08:59:39.672Z,8.40
2019-03-03T09:02:30.635Z,8.40
2019-03-03T09:05:19.350Z,8.40
2019-03-03T09:07:57.906Z,8.40
2019-03-03T09:10:44.603Z,8.50
2019-03-03T09:13:32.780Z,8.50
2019-03-03T09:16:24.578Z,8.60
2019-03-03T09:19:11.686Z,8.60
2019-03-03T09:21:59.887Z,8.70
2019-03-03T09:24:46.791Z,8.80
2019-03-03T09:27:33.974Z,8.80
2019-03-03T09:30:21.083Z,8.80
2019-03-03T09:33:07.979Z,8.90
2019-03-03T09:35:46.771Z,9.00
2019-03-03T09:38:31.238Z,9.00
2019-03-03T09:41:25.431Z,9.20
2019-03-03T09:44:19.612Z,9.20
2019-03-03T09:47:16.803Z,9.40
2019-03-03T09:50:04.015Z,9.50
2019-03-03T09:52:40.629Z,9.50
2019-03-03T09:55:28.491Z,9.60
2019-03-03T09:58:18.175Z,9.60
2019-03-03T10:01:17.958Z,9.50
2019-03-03T10:04:09.275Z,9.50
2019-03-03T10:07:05.926Z,9.40
2019-03-03T10:09:49.344Z,9.30
2019-03-03T10:12:33.820Z,9.30
2019-03-03T10:15:26.887Z,9.30
2019-03-03T10:18:23.459Z,9.20
2019-03-03T10:21:04.579Z,9.30
2019-03-03T10:23:51.283Z,9.20
2019-03-03T10:26:55.301Z,9.30
2019-03-03T10:29:46.516Z,9.20
2019-03-03T10:32:21.867Z,9.20
2019-03-03T10:35:16.331Z,9.30
2019-03-03T10:37:58.634Z,9.40
2019-03-03T10:40:36.971Z,9.40
2019-03-03T10:43:25.588Z,9.40
2019-03-03T10:46:10.500Z,9.40
2019-03-03T10:49:01.816Z,9.40
2019-03-03T10:51:49.151Z,9.40
2019-03-03T10:54:36.372Z,9.40
2019-03-03T10:57:20.390Z,9.60
2019-03-03T11:00:11.752Z,9.50
2019-03-03T11:03:04.926Z,9.50
2019-03-03T11:05:56.839Z,9.50
2019-03-03T11:08:45.443Z,9.60
2019-03-03T11:11:40.439Z,9.50
2019-03-03T11:14:23.103Z,9.60
2019-03-03T11:17:02.009Z,9.60
2019-03-03T11:19:49.249Z,9.60
2019-03-03T11:22:29.936Z,9.60
2019-03-03T11:25:21.175Z,9.60
2019-03-03T11:28:07.814Z,9.60
2019-03-03T11:30:46.324Z,9.60
2019-03-03T11:33:35.525Z,9.60
2019-03-03T11:36:11.779Z,9.60
2019-03-03T11:39:03.079Z,9.60
2019-03-03T11:41:47.800Z,9.70
2019-03-03T11:44:41.986Z,9.90
2019-03-03T11:47:42.413Z,9.90
2019-03-03T11:50:36.918Z,10.00
2019-03-03T11:53:23.597Z,10.20
2019-03-03T11:56:27.291Z,10.20
2019-03-03T11:59:08.359Z,10.30
2019-03-03T12:02:12.145Z,10.40
2019-03-03T12:05:00.557Z,10.50
2019-03-03T12:07:54.986Z,10.60
2019-03-03T12:10:42.092Z,10.60
2019-03-03T12:13:43.242Z,10.60
2019-03-03T12:16:40.502Z,10.60
2019-03-03T12:19:16.743Z,10.70
2019-03-03T12:21:58.799Z,10.60
2019-03-03T12:24:34.730Z,10.60
2019-03-03T12:27:28.025Z,10.60
2019-03-03T12:30:07.494Z,10.70
2019-03-03T12:32:46.278Z,10.70
2019-03-03T12:35:20.981Z,10.60
2019-03-03T12:38:12.287Z,10.70
2019-03-03T12:41:06.342Z,10.70
2019-03-03T12:43:48.814Z,10.70
2019-03-03T12:46:43.385Z,10.70
2019-03-03T12:49:34.759Z,10.70
2019-03-03T12:52:21.320Z,10.80
2019-03-03T12:55:09.111Z,10.80
2019-03-03T12:58:00.437Z,10.90
2019-03-03T13:00:42.698Z,11.00
2019-03-03T13:03:34.047Z,11.00
2019-03-03T13:06:24.301Z,11.10
2019-03-03T13:09:07.849Z,11.10
2019-03-03T13:11:55.223Z,11.00
2019-03-03T13:14:53.204Z,11.00
2019-03-03T13:17:29.424Z,11.00
2019-03-03T13:20:17.067Z,10.90
2019-03-03T13:23:03.671Z,10.90
2019-03-03T13:25:54.342Z,10.90
2019-03-03T13:28:45.379Z,10.90
2019-03-03T13:31:27.350Z,11.00
2019-03-03T13:34:13.806Z,11.00
2019-03-03T13:36:53.739Z,11.00
2019-03-03T13:39:51.551Z,11.00
2019-03-03T13:42:42.769Z,11.00
2019-03-03T13:45:13.044Z,11.00
2019-03-03T13:47:42.430Z,11.00
2019-03-03T13:50:14.281Z,11.00
2019-03-03T13:52:43.825Z,10.90
2019-03-03T13:55:13.460Z,10.90
2019-03-03T13:57:42.878Z,10.90
2019-03-03T14:00:15.422Z,10.90
2019-03-03T14:02:45.210Z,10.90
2019-03-03T14:05:16.316Z,10.90
2019-03-03T14:07:45.783Z,10.90
2019-03-03T14:10:15.424Z,10.90
2019-03-03T14:12:44.619Z,10.90
2019-03-03T14:15:14.728Z,10.90
2019-03-03T14:17:44.423Z,10.90
2019-03-03T14:20:18.781Z,10.90
2019-03-03T14:22:48.194Z,10.90
2019-03-03T14:25:17.668Z,10.90
2019-03-03T14:27:47.471Z,11.00
2019-03-03T14:30:18.827Z,11.00
2019-03-03T14:32:47.939Z,11.10
2019-03-03T14:35:17.515Z,11.10
2019-03-03T14:37:47.299Z,11.10
2019-03-03T14:40:17.336Z,11.20
2019-03-03T14:42:46.747Z,11.20
2019-03-03T14:45:16.856Z,11.20
2019-03-03T14:47:46.556Z,11.20
2019-03-03T14:50:17.119Z,11.20
2019-03-03T14:52:47.338Z,11.30
2019-03-03T14:55:18.183Z,11.20
2019-03-03T14:57:47.858Z,11.30
2019-03-03T15:00:30.098Z,11.30
2019-03-03T15:03:01.074Z,11.30
2019-03-03T15:05:30.723Z,11.30
2019-03-03T15:08:00.641Z,11.40
2019-03-03T15:10:30.594Z,11.30
2019-03-03T15:12:59.966Z,11.30
2019-03-03T15:15:30.259Z,11.40
2019-03-03T15:17:59.379Z,11.40
2019-03-03T15:20:29.239Z,11.40
2019-03-03T15:22:58.660Z,11.30
2019-03-03T15:25:28.551Z,11.20
2019-03-03T15:27:57.746Z,11.20
2019-03-03T15:30:27.367Z,11.10
2019-03-03T15:32:57.406Z,11.10
2019-03-03T15:35:26.935Z,11.10
2019-03-03T15:37:56.063Z,11.10
2019-03-03T15:40:25.485Z,11.00
2019-03-03T15:42:54.600Z,11.00
2019-03-03T15:45:24.134Z,11.00
2019-03-03T15:47:53.860Z,10.90
2019-03-03T15:50:23.825Z,10.90
2019-03-03T15:52:53.421Z,10.90
2019-03-03T15:55:23.127Z,10.90
2019-03-03T15:57:53.187Z,10.90
2019-03-03T16:00:24.939Z,10.80
2019-03-03T16:02:54.356Z,10.80
2019-03-03T16:05:23.695Z,10.80
2019-03-03T16:07:52.903Z,10.80
2019-03-03T16:10:22.587Z,10.70
2019-03-03T16:12:51.836Z,10.70
2019-03-03T16:15:21.256Z,10.70
2019-03-03T16:17:50.858Z,10.80
2019-03-03T16:20:20.094Z,10.80
2019-03-03T16:22:49.654Z,10.70
2019-03-03T16:25:20.037Z,10.70
2019-03-03T16:27:49.636Z,10.60
2019-03-03T16:30:19.899Z,10.60
2019-03-03T16:32:49.628Z,10.60
2019-03-03T16:35:19.128Z,10.50
2019-03-03T16:37:49.019Z,10.50
2019-03-03T16:40:19.674Z,10.50
2019-03-03T16:42:48.911Z,10.50
2019-03-03T16:45:18.107Z,10.40
2019-03-03T16:47:47.642Z,10.40
2019-03-03T16:50:17.893Z,10.40
2019-03-03T16:52:47.551Z,10.30
2019-03-03T16:55:17.077Z,10.30
2019-03-03T16:57:46.339Z,10.30
2019-03-03T17:00:17.598Z,10.20
2019-03-03T17:02:47.451Z,10.20
2019-03-03T17:05:17.614Z,10.20
2019-03-03T17:07:47.159Z,10.20
2019-03-03T17:10:16.341Z,10.10
2019-03-03T17:12:46.166Z,10.10
2019-03-03T17:15:17.438Z,10.00
2019-03-03T17:17:47.096Z,10.00
2019-03-03T17:20:16.275Z,10.00
2019-03-03T17:22:45.847Z,10.00
2019-03-03T17:25:16.783Z,10.00
2019-03-03T17:27:46.343Z,10.00
2019-03-03T17:30:17.436Z,9.90
2019-03-03T17:32:46.691Z,9.90
2019-03-03T17:35:16.043Z,9.80
2019-03-03T17:37:45.353Z,9.80
2019-03-03T17:40:19.093Z,9.80
2019-03-03T17:42:48.971Z,9.70
2019-03-03T17:45:19.712Z,9.70
2019-03-03T17:47:49.222Z,9.70
2019-03-03T17:50:19.277Z,9.70
2019-03-03T17:52:48.800Z,9.70
2019-03-03T17:55:18.134Z,9.70
2019-03-03T17:57:48.231Z,9.70
2019-03-03T18:00:19.848Z,9.60
2019-03-03T18:02:49.410Z,9.60
2019-03-03T18:05:19.827Z,9.60
2019-03-03T18:07:49.557Z,9.60
2019-03-03T18:10:19.451Z,9.60
2019-03-03T18:12:48.726Z,9.60
2019-03-03T18:15:18.155Z,9.60
2019-03-03T18:17:50.244Z,9.50
2019-03-03T18:20:19.196Z,9.50
2019-03-03T18:22:48.865Z,9.40
2019-03-03T18:25:18.423Z,9.40
2019-03-03T18:27:48.254Z,9.40
2019-03-03T18:30:19.183Z,9.30
2019-03-03T18:32:48.767Z,9.30
2019-03-03T18:35:18.005Z,9.20
2019-03-03T18:37:47.632Z,9.20
2019-03-03T18:40:18.287Z,9.10
2019-03-03T18:42:47.871Z,9.10
2019-03-03T18:45:17.226Z,9.00
2019-03-03T18:47:46.530Z,9.00
2019-03-03T18:50:17.249Z,8.90
2019-03-03T18:52:46.510Z,8.80
2019-03-03T18:55:15.933Z,8.80
2019-03-03T18:57:46.103Z,8.80
2019-03-03T19:00:17.657Z,8.70
2019-03-03T19:02:47.547Z,8.70
2019-03-03T19:05:17.840Z,8.70
2019-03-03T19:07:47.158Z,8.70
2019-03-03T19:10:17.156Z,8.70
2019-03-03T19:12:47.003Z,8.70
2019-03-03T19:15:16.900Z,8.70
2019-03-03T19:17:46.595Z,8.60
2019-03-03T19:20:17.280Z,8.60
2019-03-03T19:22:46.418Z,8.60
2019-03-03T19:25:15.931Z,8.60
2019-03-03T19:27:45.203Z,8.50
2019-03-03T19:30:17.176Z,8.50
2019-03-03T19:32:47.309Z,8.50
2019-03-03T19:35:16.642Z,8.50
2019-03-03T19:37:46.360Z,8.50
2019-03-03T19:40:15.730Z,8.50
2019-03-03T19:42:45.107Z,8.50
2019-03-03T19:45:19.839Z,8.60
2019-03-03T19:47:49.231Z,8.50
2019-03-03T19:50:18.827Z,8.50
2019-03-03T19:52:48.193Z,8.50
2019-03-03T19:55:17.799Z,8.60
2019-03-03T19:57:46.904Z,8.60
2019-03-03T20:00:19.263Z,8.60
2019-03-03T20:02:48.371Z,8.60
2019-03-03T20:05:17.611Z,8.50
2019-03-03T20:07:47.024Z,8.50
2019-03-03T20:10:16.329Z,8.50
2019-03-03T20:12:52.279Z,8.50
2019-03-03T20:15:21.543Z,8.50
2019-03-03T20:17:50.722Z,8.50
2019-03-03T20:20:19.877Z,8.50
2019-03-03T20:22:49.938Z,8.50
2019-03-03T20:25:19.555Z,8.50
2019-03-03T20:27:49.117Z,8.50
2019-03-03T20:30:19.180Z,8.50
2019-03-03T20:32:48.371Z,8.50
2019-03-03T20:35:17.626Z,8.50
2019-03-03T20:37:46.928Z,8.50
2019-03-03T20:40:16.640Z,8.50
2019-03-03T20:42:46.332Z,8.50
2019-03-03T20:45:17.630Z,8.50
2019-03-03T20:47:47.019Z,8.40
2019-03-03T20:50:18.292Z,8.40
2019-03-03T20:52:47.680Z,8.40
2019-03-03T20:55:18.128Z,8.30
2019-03-03T20:57:53.860Z,8.30
2019-03-03T21:00:24.735Z,8.30
2019-03-03T21:02:53.957Z,8.40
2019-03-03T21:05:23.201Z,8.40
2019-03-03T21:07:52.479Z,8.40
2019-03-03T21:10:22.307Z,8.40
2019-03-03T21:12:51.682Z,8.40
2019-03-03T21:15:21.363Z,8.30
2019-03-03T21:17:50.839Z,8.30
2019-03-03T21:20:20.235Z,8.30
2019-03-03T21:22:49.521Z,8.30
2019-03-03T21:25:18.704Z,8.20
2019-03-03T21:27:47.920Z,8.20
2019-03-03T21:30:19.483Z,8.20
2019-03-03T21:32:49.269Z,8.10
2019-03-03T21:35:18.546Z,8.10
2019-03-03T21:37:48.672Z,8.10
2019-03-03T21:40:19.172Z,8.10
2019-03-03T21:42:49.040Z,8.10
2019-03-03T21:45:19.623Z,8.10
2019-03-03T21:47:48.987Z,8.00
2019-03-03T21:50:19.848Z,8.00
2019-03-03T21:52:49.532Z,8.00
2019-03-03T21:55:19.021Z,8.00
2019-03-03T21:57:48.210Z,8.00
2019-03-03T22:00:37.798Z,8.00
2019-03-03T22:03:07.495Z,8.10
2019-03-03T22:05:36.983Z,8.00
2019-03-03T22:08:06.770Z,8.00
2019-03-03T22:10:36.194Z,8.10
2019-03-03T22:13:12.751Z,8.20
2019-03-03T22:15:43.299Z,8.20
2019-03-03T22:18:13.751Z,8.10
2019-03-03T22:20:43.155Z,8.10
2019-03-03T22:23:12.541Z,8.10
2019-03-03T22:25:41.963Z,8.10
2019-03-03T22:28:11.612Z,8.10
2019-03-03T22:30:41.040Z,8.10
2019-03-03T22:33:10.713Z,8.10
2019-03-03T22:35:40.112Z,8.10
2019-03-03T22:38:09.256Z,8.10
2019-03-03T22:40:38.387Z,8.20
2019-03-03T22:43:07.795Z,8.20
2019-03-03T22:45:37.032Z,8.10
2019-03-03T22:48:06.408Z,8.10
2019-03-03T22:50:35.842Z,8.10
2019-03-03T22:53:05.240Z,8.10
2019-03-03T22:55:40.512Z,8.10
2019-03-03T22:58:10.341Z,8.00
2019-03-03T23:00:46.744Z,8.00
2019-03-03T23:03:22.094Z,8.00
2019-03-03T23:06:27.722Z,7.90
2019-03-03T23:09:35.575Z,7.90
2019-03-03T23:12:18.030Z,7.80
2019-03-03T23:15:11.783Z,7.80
2019-03-03T23:18:28.571Z,7.70
2019-03-03T23:21:09.387Z,7.70
2019-03-03T23:24:16.748Z,7.60
2019-03-03T23:26:46.171Z,7.60
2019-03-03T23:29:17.047Z,7.50
2019-03-03T23:31:46.213Z,7.50
2019-03-03T23:34:15.319Z,7.50
2019-03-03T23:36:44.728Z,7.40
2019-03-03T23:39:14.430Z,7.40
2019-03-03T23:41:43.863Z,7.40
2019-03-03T23:44:13.243Z,7.30
2019-03-03T23:46:42.402Z,7.20
2019-03-03T23:49:11.512Z,7.30
2019-03-03T23:51:41.205Z,7.20
2019-03-03T23:54:10.603Z,7.20
2019-03-03T23:56:40.020Z,7.20
2019-03-03T23:59:09.682Z,7.20
